sensor_id;sensor_type;location;lat;lon;timestamp;pressure;altitude;pressure_sealevel;temperature;humidity
45813;BME280;31519;45.408;10.962;2023-04-01T00:02:02;99526.13;;;13.35;84.50
45813;BME280;31519;45.408;10.962;2023-04-01T00:04:30;99520.94;;;13.42;84.62
45813;BME280;31519;45.408;10.962;2023-04-01T00:06:58;99526.53;;;13.06;87.12
45813;BME280;31519;45.408;10.962;2023-04-01T00:09:27;99527.56;;;13.17;87.98
45813;BME280;31519;45.408;10.962;2023-04-01T00:11:57;99524.78;;;13.76;84.69
45813;BME280;31519;45.408;10.962;2023-04-01T00:14:24;99522.22;;;13.64;85.31
45813;BME280;31519;45.408;10.962;2023-04-01T00:16:53;99521.06;;;14.35;81.61
45813;BME280;31519;45.408;10.962;2023-04-01T00:19:21;99526.31;;;14.12;81.61
45813;BME280;31519;45.408;10.962;2023-04-01T00:21:49;99529.47;;;14.33;80.90
45813;BME280;31519;45.408;10.962;2023-04-01T00:24:16;99534.56;;;14.57;79.31
45813;BME280;31519;45.408;10.962;2023-04-01T00:26:45;99533.47;;;14.81;77.76
45813;BME280;31519;45.408;10.962;2023-04-01T00:29:12;99540.28;;;14.75;77.54
45813;BME280;31519;45.408;10.962;2023-04-01T00:31:40;99534.91;;;14.56;78.85
45813;BME280;31519;45.408;10.962;2023-04-01T00:34:08;99530.91;;;14.66;77.80
45813;BME280;31519;45.408;10.962;2023-04-01T00:36:36;99533.72;;;14.53;78.10
45813;BME280;31519;45.408;10.962;2023-04-01T00:39:04;99540.19;;;14.33;78.36
45813;BME280;31519;45.408;10.962;2023-04-01T00:41:32;99536.81;;;14.36;78.51
45813;BME280;31519;45.408;10.962;2023-04-01T00:46:47;99538.38;;;14.21;78.94
45813;BME280;31519;45.408;10.962;2023-04-01T00:49:15;99536.88;;;14.20;79.08
45813;BME280;31519;45.408;10.962;2023-04-01T00:51:45;99543.69;;;14.18;79.15
45813;BME280;31519;45.408;10.962;2023-04-01T00:54:16;99545.34;;;14.42;77.99
45813;BME280;31519;45.408;10.962;2023-04-01T00:59:25;99552.19;;;14.39;77.36
45813;BME280;31519;45.408;10.962;2023-04-01T01:01:54;99543.91;;;14.29;77.91
45813;BME280;31519;45.408;10.962;2023-04-01T01:04:26;99550.38;;;14.28;78.09
45813;BME280;31519;45.408;10.962;2023-04-01T01:09:42;99541.22;;;14.29;77.79
45813;BME280;31519;45.408;10.962;2023-04-01T01:12:14;99542.75;;;14.45;77.42
45813;BME280;31519;45.408;10.962;2023-04-01T01:26:22;99548.38;;;13.23;89.06
45813;BME280;31519;45.408;10.962;2023-04-01T01:31:03;99546.22;;;13.29;90.29
45813;BME280;31519;45.408;10.962;2023-04-01T01:34:21;99539.72;;;13.61;88.67
45813;BME280;31519;45.408;10.962;2023-04-01T01:36:28;99539.69;;;13.93;87.23
45813;BME280;31519;45.408;10.962;2023-04-01T01:39:00;99544.19;;;13.89;86.98
45813;BME280;31519;45.408;10.962;2023-04-01T01:41:28;99536.06;;;14.01;86.88
45813;BME280;31519;45.408;10.962;2023-04-01T01:43:57;99538.69;;;13.82;88.35
45813;BME280;31519;45.408;10.962;2023-04-01T01:46:27;99539.19;;;13.87;89.35
45813;BME280;31519;45.408;10.962;2023-04-01T01:48:56;99545.16;;;13.81;90.19
45813;BME280;31519;45.408;10.962;2023-04-01T01:51:26;99541.09;;;13.71;90.87
45813;BME280;31519;45.408;10.962;2023-04-01T01:53:55;99531.19;;;13.71;90.92
45813;BME280;31519;45.408;10.962;2023-04-01T01:56:25;99533.38;;;13.50;93.00
45813;BME280;31519;45.408;10.962;2023-04-01T01:58:56;99528.09;;;13.69;91.61
45813;BME280;31519;45.408;10.962;2023-04-01T02:01:28;99527.56;;;13.64;92.07
45813;BME280;31519;45.408;10.962;2023-04-01T02:04:03;99537.56;;;13.83;91.20
45813;BME280;31519;45.408;10.962;2023-04-01T02:06:32;99539.56;;;13.70;90.82
45813;BME280;31519;45.408;10.962;2023-04-01T02:09:03;99539.88;;;13.84;90.31
45813;BME280;31519;45.408;10.962;2023-04-01T02:11:51;99538.00;;;13.69;91.17
45813;BME280;31519;45.408;10.962;2023-04-01T02:14:21;99533.06;;;13.71;90.96
45813;BME280;31519;45.408;10.962;2023-04-01T02:17:12;99530.84;;;13.73;90.54
45813;BME280;31519;45.408;10.962;2023-04-01T02:19:39;99539.13;;;13.52;90.46
45813;BME280;31519;45.408;10.962;2023-04-01T02:22:11;99537.56;;;13.67;89.86
45813;BME280;31519;45.408;10.962;2023-04-01T02:24:41;99538.59;;;13.78;89.29
45813;BME280;31519;45.408;10.962;2023-04-01T02:27:10;99529.47;;;13.63;88.22
45813;BME280;31519;45.408;10.962;2023-04-01T02:29:39;99534.38;;;13.61;88.35
45813;BME280;31519;45.408;10.962;2023-04-01T02:32:07;99543.19;;;13.62;87.58
45813;BME280;31519;45.408;10.962;2023-04-01T02:34:37;99530.31;;;13.67;87.76
45813;BME280;31519;45.408;10.962;2023-04-01T02:37:05;99523.66;;;13.61;87.37
45813;BME280;31519;45.408;10.962;2023-04-01T02:39:33;99520.47;;;13.71;86.58
45813;BME280;31519;45.408;10.962;2023-04-01T02:42:01;99517.53;;;13.76;86.49
45813;BME280;31519;45.408;10.962;2023-04-01T02:44:29;99528.34;;;13.64;86.73
45813;BME280;31519;45.408;10.962;2023-04-01T02:46:58;99527.50;;;13.45;87.84
45813;BME280;31519;45.408;10.962;2023-04-01T02:49:26;99535.84;;;13.43;87.94
45813;BME280;31519;45.408;10.962;2023-04-01T02:51:54;99537.94;;;13.34;87.68
45813;BME280;31519;45.408;10.962;2023-04-01T02:54:22;99543.22;;;13.46;87.05
45813;BME280;31519;45.408;10.962;2023-04-01T02:56:49;99543.38;;;13.69;86.19
45813;BME280;31519;45.408;10.962;2023-04-01T02:59:18;99542.84;;;13.48;86.97
45813;BME280;31519;45.408;10.962;2023-04-01T03:01:45;99541.81;;;13.21;87.59
45813;BME280;31519;45.408;10.962;2023-04-01T03:04:13;99539.63;;;13.11;88.46
45813;BME280;31519;45.408;10.962;2023-04-01T03:06:41;99551.88;;;13.12;88.34
45813;BME280;31519;45.408;10.962;2023-04-01T03:09:10;99560.59;;;13.24;87.43
45813;BME280;31519;45.408;10.962;2023-04-01T03:11:38;99561.13;;;13.14;86.98
45813;BME280;31519;45.408;10.962;2023-04-01T03:14:06;99550.97;;;13.36;87.06
45813;BME280;31519;45.408;10.962;2023-04-01T03:16:34;99539.84;;;13.18;87.34
45813;BME280;31519;45.408;10.962;2023-04-01T03:19:02;99542.50;;;13.18;87.75
45813;BME280;31519;45.408;10.962;2023-04-01T03:21:30;99543.66;;;13.05;88.70
45813;BME280;31519;45.408;10.962;2023-04-01T03:23:59;99558.50;;;12.74;89.93
45813;BME280;31519;45.408;10.962;2023-04-01T03:26:29;99566.13;;;12.20;94.01
45813;BME280;31519;45.408;10.962;2023-04-01T03:28:58;99547.06;;;12.34;93.03
45813;BME280;31519;45.408;10.962;2023-04-01T03:31:26;99545.78;;;12.28;94.48
45813;BME280;31519;45.408;10.962;2023-04-01T03:33:56;99546.38;;;12.77;92.04
45813;BME280;31519;45.408;10.962;2023-04-01T03:36:24;99529.13;;;12.74;90.63
45813;BME280;31519;45.408;10.962;2023-04-01T03:38:53;99541.91;;;12.81;90.42
45813;BME280;31519;45.408;10.962;2023-04-01T03:41:31;99557.69;;;13.02;89.93
45813;BME280;31519;45.408;10.962;2023-04-01T03:44:00;99562.59;;;12.84;89.08
45813;BME280;31519;45.408;10.962;2023-04-01T03:46:28;99559.00;;;12.64;90.01
45813;BME280;31519;45.408;10.962;2023-04-01T03:48:56;99556.75;;;12.66;89.41
45813;BME280;31519;45.408;10.962;2023-04-01T03:51:23;99561.31;;;12.94;88.61
45813;BME280;31519;45.408;10.962;2023-04-01T03:53:52;99574.53;;;12.74;88.74
45813;BME280;31519;45.408;10.962;2023-04-01T03:56:20;99577.31;;;12.50;88.62
45813;BME280;31519;45.408;10.962;2023-04-01T03:58:50;99573.38;;;12.60;88.25
45813;BME280;31519;45.408;10.962;2023-04-01T04:01:19;99580.78;;;12.78;86.54
45813;BME280;31519;45.408;10.962;2023-04-01T04:03:51;99568.94;;;12.52;88.68
45813;BME280;31519;45.408;10.962;2023-04-01T04:06:21;99576.44;;;12.46;87.93
45813;BME280;31519;45.408;10.962;2023-04-01T04:08:50;99579.91;;;12.34;88.80
45813;BME280;31519;45.408;10.962;2023-04-01T04:11:19;99578.81;;;12.63;87.85
45813;BME280;31519;45.408;10.962;2023-04-01T04:13:48;99586.84;;;12.63;87.85
45813;BME280;31519;45.408;10.962;2023-04-01T04:16:16;99584.50;;;12.62;88.18
45813;BME280;31519;45.408;10.962;2023-04-01T04:18:50;99587.31;;;12.53;88.23
45813;BME280;31519;45.408;10.962;2023-04-01T04:21:18;99581.31;;;12.44;87.56
45813;BME280;31519;45.408;10.962;2023-04-01T04:23:46;99578.50;;;12.53;87.50
45813;BME280;31519;45.408;10.962;2023-04-01T04:26:16;99577.81;;;12.28;88.15
45813;BME280;31519;45.408;10.962;2023-04-01T04:28:53;99585.16;;;12.31;88.27
45813;BME280;31519;45.408;10.962;2023-04-01T04:31:22;99588.41;;;12.64;87.02
45813;BME280;31519;45.408;10.962;2023-04-01T04:33:51;99588.91;;;12.30;88.51
45813;BME280;31519;45.408;10.962;2023-04-01T04:36:20;99590.03;;;12.29;88.66
45813;BME280;31519;45.408;10.962;2023-04-01T04:38:50;99584.88;;;12.48;87.29
45813;BME280;31519;45.408;10.962;2023-04-01T04:41:19;99590.31;;;12.52;86.28
45813;BME280;31519;45.408;10.962;2023-04-01T04:43:52;99587.72;;;12.27;87.08
45813;BME280;31519;45.408;10.962;2023-04-01T04:46:22;99580.22;;;12.45;86.16
45813;BME280;31519;45.408;10.962;2023-04-01T04:48:56;99592.41;;;12.58;86.01
45813;BME280;31519;45.408;10.962;2023-04-01T04:51:25;99598.59;;;12.34;86.13
45813;BME280;31519;45.408;10.962;2023-04-01T04:53:54;99600.06;;;12.32;87.44
45813;BME280;31519;45.408;10.962;2023-04-01T04:56:32;99590.25;;;12.36;87.47
45813;BME280;31519;45.408;10.962;2023-04-01T04:59:05;99599.13;;;12.80;85.23
45813;BME280;31519;45.408;10.962;2023-04-01T05:01:43;99612.91;;;12.54;85.86
45813;BME280;31519;45.408;10.962;2023-04-01T05:04:11;99613.19;;;12.37;86.99
45813;BME280;31519;45.408;10.962;2023-04-01T05:06:39;99614.72;;;12.38;87.07
45813;BME280;31519;45.408;10.962;2023-04-01T05:09:07;99620.19;;;12.41;86.39
45813;BME280;31519;45.408;10.962;2023-04-01T05:11:36;99620.31;;;12.73;83.97
45813;BME280;31519;45.408;10.962;2023-04-01T05:14:04;99609.81;;;12.80;83.17
45813;BME280;31519;45.408;10.962;2023-04-01T05:16:36;99595.41;;;12.69;83.61
45813;BME280;31519;45.408;10.962;2023-04-01T05:19:04;99601.63;;;12.61;82.73
45813;BME280;31519;45.408;10.962;2023-04-01T05:21:32;99602.19;;;12.26;83.79
45813;BME280;31519;45.408;10.962;2023-04-01T05:24:01;99612.38;;;12.49;83.11
45813;BME280;31519;45.408;10.962;2023-04-01T05:26:31;99612.03;;;12.50;83.79
45813;BME280;31519;45.408;10.962;2023-04-01T05:29:00;99601.22;;;12.59;82.17
45813;BME280;31519;45.408;10.962;2023-04-01T05:31:28;99604.50;;;12.40;83.28
45813;BME280;31519;45.408;10.962;2023-04-01T05:33:57;99607.53;;;12.66;81.29
45813;BME280;31519;45.408;10.962;2023-04-01T05:36:25;99611.25;;;12.50;82.20
45813;BME280;31519;45.408;10.962;2023-04-01T05:38:55;99620.47;;;12.52;81.30
45813;BME280;31519;45.408;10.962;2023-04-01T05:41:26;99619.13;;;12.58;80.42
45813;BME280;31519;45.408;10.962;2023-04-01T05:43:54;99624.63;;;12.37;81.05
45813;BME280;31519;45.408;10.962;2023-04-01T05:47:01;99620.06;;;12.50;80.78
45813;BME280;31519;45.408;10.962;2023-04-01T05:49:30;99617.25;;;12.59;80.46
45813;BME280;31519;45.408;10.962;2023-04-01T05:51:58;99624.59;;;12.89;78.37
45813;BME280;31519;45.408;10.962;2023-04-01T05:54:27;99628.66;;;12.71;77.10
45813;BME280;31519;45.408;10.962;2023-04-01T05:56:55;99635.53;;;12.44;79.29
45813;BME280;31519;45.408;10.962;2023-04-01T05:59:23;99639.22;;;12.28;82.19
45813;BME280;31519;45.408;10.962;2023-04-01T06:01:51;99619.75;;;12.27;83.10
45813;BME280;31519;45.408;10.962;2023-04-01T06:04:20;99619.44;;;12.69;81.39
45813;BME280;31519;45.408;10.962;2023-04-01T06:06:48;99622.63;;;13.02;79.30
45813;BME280;31519;45.408;10.962;2023-04-01T06:09:17;99633.25;;;12.99;78.86
45813;BME280;31519;45.408;10.962;2023-04-01T06:14:52;99643.13;;;13.10;79.25
45813;BME280;31519;45.408;10.962;2023-04-01T06:17:26;99629.47;;;13.27;80.42
45813;BME280;31519;45.408;10.962;2023-04-01T06:25:07;99630.28;;;13.59;87.35
45813;BME280;31519;45.408;10.962;2023-04-01T06:27:46;99632.44;;;13.85;85.11
45813;BME280;31519;45.408;10.962;2023-04-01T06:30:30;99638.72;;;14.24;81.19
45813;BME280;31519;45.408;10.962;2023-04-01T06:43:41;99660.66;;;13.67;85.26
45813;BME280;31519;45.408;10.962;2023-04-01T06:46:33;99666.28;;;13.62;88.18
45813;BME280;31519;45.408;10.962;2023-04-01T06:57:55;99655.16;;;13.75;87.89
45813;BME280;31519;45.408;10.962;2023-04-01T07:00:31;99652.38;;;14.19;85.91
45813;BME280;31519;45.408;10.962;2023-04-01T07:05:33;99668.88;;;13.74;86.59
45813;BME280;31519;45.408;10.962;2023-04-01T07:08:04;99664.34;;;14.56;83.45
45813;BME280;31519;45.408;10.962;2023-04-01T07:13:25;99662.97;;;15.62;75.62
45813;BME280;31519;45.408;10.962;2023-04-01T07:16:03;99667.75;;;15.30;76.29
45813;BME280;31519;45.408;10.962;2023-04-01T07:18:59;99668.50;;;15.73;73.60
45813;BME280;31519;45.408;10.962;2023-04-01T07:21:51;99672.59;;;15.44;75.13
45813;BME280;31519;45.408;10.962;2023-04-01T07:24:33;99674.41;;;15.40;74.67
45813;BME280;31519;45.408;10.962;2023-04-01T07:27:12;99670.25;;;16.33;70.79
45813;BME280;31519;45.408;10.962;2023-04-01T07:29:41;99668.91;;;16.47;68.80
45813;BME280;31519;45.408;10.962;2023-04-01T07:37:58;99670.53;;;16.55;68.13
45813;BME280;31519;45.408;10.962;2023-04-01T07:40:52;99673.72;;;17.23;66.10
45813;BME280;31519;45.408;10.962;2023-04-01T07:43:41;99675.06;;;17.40;64.84
45813;BME280;31519;45.408;10.962;2023-04-01T07:49:01;99690.19;;;18.40;60.84
45813;BME280;31519;45.408;10.962;2023-04-01T07:52:07;99692.09;;;18.43;59.84
45813;BME280;31519;45.408;10.962;2023-04-01T07:57:18;99686.84;;;17.28;63.07
45813;BME280;31519;45.408;10.962;2023-04-01T07:59:57;99686.63;;;17.41;63.49
45813;BME280;31519;45.408;10.962;2023-04-01T08:05:33;99690.84;;;17.42;62.18
45813;BME280;31519;45.408;10.962;2023-04-01T08:08:22;99693.59;;;18.33;60.28
45813;BME280;31519;45.408;10.962;2023-04-01T08:14:14;99680.16;;;19.06;58.25
45813;BME280;31519;45.408;10.962;2023-04-01T08:17:00;99687.63;;;18.06;59.43
45813;BME280;31519;45.408;10.962;2023-04-01T08:22:48;99687.91;;;18.49;59.70
45813;BME280;31519;45.408;10.962;2023-04-01T08:25:30;99691.41;;;19.32;58.19
45813;BME280;31519;45.408;10.962;2023-04-01T08:28:13;99689.19;;;19.52;56.94
45813;BME280;31519;45.408;10.962;2023-04-01T08:30:47;99679.94;;;19.81;56.29
45813;BME280;31519;45.408;10.962;2023-04-01T08:36:14;99680.22;;;19.30;57.21
45813;BME280;31519;45.408;10.962;2023-04-01T08:38:49;99678.41;;;18.66;58.89
45813;BME280;31519;45.408;10.962;2023-04-01T08:46:55;99678.72;;;18.02;61.28
45813;BME280;31519;45.408;10.962;2023-04-01T08:52:47;99681.09;;;19.73;55.66
45813;BME280;31519;45.408;10.962;2023-04-01T08:57:41;99681.88;;;20.34;53.82
45813;BME280;31519;45.408;10.962;2023-04-01T09:00:54;99689.94;;;20.55;53.56
45813;BME280;31519;45.408;10.962;2023-04-01T09:04:08;99698.09;;;20.41;53.66
45813;BME280;31519;45.408;10.962;2023-04-01T09:09:20;99697.69;;;20.57;53.47
45813;BME280;31519;45.408;10.962;2023-04-01T09:12:15;99701.19;;;20.08;55.19
45813;BME280;31519;45.408;10.962;2023-04-01T09:22:57;99697.69;;;19.89;55.18
45813;BME280;31519;45.408;10.962;2023-04-01T09:44:06;99685.16;;;21.75;49.90
45813;BME280;31519;45.408;10.962;2023-04-01T09:55:28;99694.94;;;20.67;49.36
45813;BME280;31519;45.408;10.962;2023-04-01T10:08:55;99679.16;;;22.42;38.01
45813;BME280;31519;45.408;10.962;2023-04-01T10:11:44;99684.44;;;20.94;39.53
45813;BME280;31519;45.408;10.962;2023-04-01T10:22:36;99661.38;;;20.47;37.35
45813;BME280;31519;45.408;10.962;2023-04-01T10:25:18;99664.78;;;20.76;36.37
45813;BME280;31519;45.408;10.962;2023-04-01T10:41:23;99666.84;;;21.89;36.64
45813;BME280;31519;45.408;10.962;2023-04-01T10:49:25;99657.28;;;22.93;36.13
45813;BME280;31519;45.408;10.962;2023-04-01T10:52:05;99663.03;;;22.31;38.29
45813;BME280;31519;45.408;10.962;2023-04-01T10:58:24;99649.25;;;22.49;38.18
45813;BME280;31519;45.408;10.962;2023-04-01T11:18:35;99640.31;;;23.43;33.88
45813;BME280;31519;45.408;10.962;2023-04-01T11:23:45;99629.72;;;24.22;31.72
45813;BME280;31519;45.408;10.962;2023-04-01T11:40:51;99627.63;;;23.87;30.06
45813;BME280;31519;45.408;10.962;2023-04-01T11:49:33;99627.53;;;25.12;28.67
45813;BME280;31519;45.408;10.962;2023-04-01T11:57:26;99623.50;;;25.20;27.96
45813;BME280;31519;45.408;10.962;2023-04-01T12:00:19;99610.44;;;26.09;27.11
45813;BME280;31519;45.408;10.962;2023-04-01T12:08:15;99614.31;;;25.63;29.12
45813;BME280;31519;45.408;10.962;2023-04-01T12:21:14;99607.78;;;25.08;29.17
45813;BME280;31519;45.408;10.962;2023-04-01T12:29:07;99606.13;;;25.46;23.77
45813;BME280;31519;45.408;10.962;2023-04-01T12:34:13;99602.88;;;27.12;22.62
45813;BME280;31519;45.408;10.962;2023-04-01T12:37:09;99606.72;;;25.38;24.44
45813;BME280;31519;45.408;10.962;2023-04-01T12:45:28;99590.66;;;27.76;23.02
45813;BME280;31519;45.408;10.962;2023-04-01T12:50:26;99583.84;;;25.96;24.99
45813;BME280;31519;45.408;10.962;2023-04-01T13:03:14;99577.91;;;26.84;23.92
45813;BME280;31519;45.408;10.962;2023-04-01T13:16:27;99571.66;;;27.47;22.91
45813;BME280;31519;45.408;10.962;2023-04-01T13:19:05;99564.63;;;28.49;22.29
45813;BME280;31519;45.408;10.962;2023-04-01T13:21:49;99565.84;;;28.79;21.50
45813;BME280;31519;45.408;10.962;2023-04-01T13:24:25;99560.78;;;29.67;21.55
45813;BME280;31519;45.408;10.962;2023-04-01T13:37:13;99551.13;;;28.86;20.91
45813;BME280;31519;45.408;10.962;2023-04-01T13:40:12;99550.88;;;27.37;21.81
45813;BME280;31519;45.408;10.962;2023-04-01T13:50:37;99516.84;;;29.30;20.40
45813;BME280;31519;45.408;10.962;2023-04-01T14:01:08;99509.66;;;27.19;21.27
45813;BME280;31519;45.408;10.962;2023-04-01T14:06:31;99498.75;;;29.69;19.57
45813;BME280;31519;45.408;10.962;2023-04-01T14:11:34;99504.94;;;30.33;18.75
45813;BME280;31519;45.408;10.962;2023-04-01T14:27:41;99488.41;;;30.85;18.82
45813;BME280;31519;45.408;10.962;2023-04-01T14:30:19;99487.63;;;30.93;18.82
45813;BME280;31519;45.408;10.962;2023-04-01T14:51:16;99462.06;;;31.02;18.44
45813;BME280;31519;45.408;10.962;2023-04-01T14:54:03;99461.91;;;31.05;18.48
45813;BME280;31519;45.408;10.962;2023-04-01T14:59:45;99463.78;;;29.24;19.62
45813;BME280;31519;45.408;10.962;2023-04-01T15:12:59;99450.84;;;27.61;21.15
45813;BME280;31519;45.408;10.962;2023-04-01T15:18:07;99441.44;;;27.15;21.35
45813;BME280;31519;45.408;10.962;2023-04-01T15:26:00;99431.06;;;27.10;21.69
45813;BME280;31519;45.408;10.962;2023-04-01T15:28:38;99442.53;;;27.18;21.86
45813;BME280;31519;45.408;10.962;2023-04-01T15:43:49;99444.47;;;28.39;20.10
45813;BME280;31519;45.408;10.962;2023-04-01T15:57:33;99455.56;;;28.35;19.92
45813;BME280;31519;45.408;10.962;2023-04-01T16:08:33;99454.97;;;28.31;18.88
45813;BME280;31519;45.408;10.962;2023-04-01T16:11:14;99456.22;;;27.52;19.85
45813;BME280;31519;45.408;10.962;2023-04-01T16:13:48;99450.47;;;27.72;19.53
45813;BME280;31519;45.408;10.962;2023-04-01T16:16:58;99446.31;;;27.67;19.41
45813;BME280;31519;45.408;10.962;2023-04-01T16:19:32;99435.81;;;27.88;19.69
45813;BME280;31519;45.408;10.962;2023-04-01T16:24:47;99434.66;;;27.98;19.46
45813;BME280;31519;45.408;10.962;2023-04-01T16:30:17;99430.34;;;27.88;19.04
45813;BME280;31519;45.408;10.962;2023-04-01T16:32:57;99436.44;;;27.48;19.21
45813;BME280;31519;45.408;10.962;2023-04-01T16:35:30;99437.22;;;27.36;19.61
45813;BME280;31519;45.408;10.962;2023-04-01T16:38:08;99434.13;;;27.12;19.67
45813;BME280;31519;45.408;10.962;2023-04-01T16:43:11;99434.72;;;26.95;19.50
45813;BME280;31519;45.408;10.962;2023-04-01T16:48:55;99436.34;;;26.54;19.89
45813;BME280;31519;45.408;10.962;2023-04-01T16:51:03;99432.97;;;26.50;19.41
45813;BME280;31519;45.408;10.962;2023-04-01T16:56:06;99436.09;;;26.11;20.18
45813;BME280;31519;45.408;10.962;2023-04-01T16:58:38;99442.00;;;25.80;19.61
45813;BME280;31519;45.408;10.962;2023-04-01T17:01:16;99433.13;;;25.64;20.50
45813;BME280;31519;45.408;10.962;2023-04-01T17:03:49;99440.63;;;25.59;20.51
45813;BME280;31519;45.408;10.962;2023-04-01T17:09:01;99441.25;;;25.51;19.40
45813;BME280;31519;45.408;10.962;2023-04-01T17:11:49;99441.75;;;25.46;20.42
45813;BME280;31519;45.408;10.962;2023-04-01T17:20:05;99442.09;;;24.87;21.92
45813;BME280;31519;45.408;10.962;2023-04-01T17:22:52;99438.38;;;24.77;22.29
45813;BME280;31519;45.408;10.962;2023-04-01T17:25:29;99449.94;;;24.49;22.89
45813;BME280;31519;45.408;10.962;2023-04-01T17:41:02;99450.47;;;23.84;24.36
45813;BME280;31519;45.408;10.962;2023-04-01T17:43:40;99452.84;;;23.63;25.07
45813;BME280;31519;45.408;10.962;2023-04-01T17:51:20;99455.44;;;23.47;26.81
45813;BME280;31519;45.408;10.962;2023-04-01T18:01:46;99476.06;;;23.21;28.58
45813;BME280;31519;45.408;10.962;2023-04-01T18:04:37;99478.06;;;22.93;29.00
45813;BME280;31519;45.408;10.962;2023-04-01T18:15:31;99493.06;;;22.75;30.80
45813;BME280;31519;45.408;10.962;2023-04-01T18:20:52;99494.72;;;22.65;31.50
45813;BME280;31519;45.408;10.962;2023-04-01T18:23:27;99499.13;;;22.55;31.71
45813;BME280;31519;45.408;10.962;2023-04-01T18:26:04;99499.94;;;22.52;32.16
45813;BME280;31519;45.408;10.962;2023-04-01T18:31:23;99512.16;;;22.37;32.70
45813;BME280;31519;45.408;10.962;2023-04-01T18:36:33;99519.66;;;21.89;34.00
45813;BME280;31519;45.408;10.962;2023-04-01T18:39:04;99521.69;;;21.78;34.25
45813;BME280;31519;45.408;10.962;2023-04-01T18:41:51;99526.69;;;21.83;34.33
45813;BME280;31519;45.408;10.962;2023-04-01T18:52:34;99538.78;;;21.75;34.46
45813;BME280;31519;45.408;10.962;2023-04-01T18:57:41;99537.19;;;21.81;33.83
45813;BME280;31519;45.408;10.962;2023-04-01T19:00:22;99543.31;;;21.44;34.46
45813;BME280;31519;45.408;10.962;2023-04-01T19:03:07;99539.91;;;21.33;34.43
45813;BME280;31519;45.408;10.962;2023-04-01T19:05:38;99544.28;;;21.64;33.31
45813;BME280;31519;45.408;10.962;2023-04-01T19:16:08;99552.00;;;21.17;32.83
45813;BME280;31519;45.408;10.962;2023-04-01T19:18:53;99559.44;;;21.03;33.02
45813;BME280;31519;45.408;10.962;2023-04-01T19:21:29;99555.97;;;21.02;32.89
45813;BME280;31519;45.408;10.962;2023-04-01T19:29:12;99568.31;;;21.07;32.46
45813;BME280;31519;45.408;10.962;2023-04-01T19:34:46;99577.97;;;21.15;31.59
45813;BME280;31519;45.408;10.962;2023-04-01T19:39:51;99581.44;;;21.12;32.01
45813;BME280;31519;45.408;10.962;2023-04-01T19:45:53;99584.31;;;20.76;32.31
45813;BME280;31519;45.408;10.962;2023-04-01T19:48:05;99593.59;;;20.83;32.71
45813;BME280;31519;45.408;10.962;2023-04-01T20:01:20;99593.03;;;20.11;33.86
45813;BME280;31519;45.408;10.962;2023-04-01T20:14:37;99593.84;;;19.80;35.52
45813;BME280;31519;45.408;10.962;2023-04-01T20:17:14;99594.25;;;19.75;35.19
45813;BME280;31519;45.408;10.962;2023-04-01T20:20:00;99597.31;;;19.80;35.26
45813;BME280;31519;45.408;10.962;2023-04-01T20:25:30;99596.56;;;19.62;35.88
45813;BME280;31519;45.408;10.962;2023-04-01T20:28:02;99593.47;;;19.60;35.85
45813;BME280;31519;45.408;10.962;2023-04-01T20:33:10;99597.72;;;19.51;37.00
45813;BME280;31519;45.408;10.962;2023-04-01T20:38:30;99605.03;;;19.71;36.68
45813;BME280;31519;45.408;10.962;2023-04-01T20:43:39;99609.69;;;19.60;36.73
45813;BME280;31519;45.408;10.962;2023-04-01T20:46:22;99605.81;;;19.68;36.82
45813;BME280;31519;45.408;10.962;2023-04-01T20:48:58;99614.28;;;19.53;37.07
45813;BME280;31519;45.408;10.962;2023-04-01T20:51:34;99612.75;;;19.48;36.74
45813;BME280;31519;45.408;10.962;2023-04-01T20:59:54;99617.00;;;19.53;36.92
45813;BME280;31519;45.408;10.962;2023-04-01T21:05:11;99613.53;;;19.77;37.71
45813;BME280;31519;45.408;10.962;2023-04-01T21:13:06;99634.38;;;19.69;40.64
45813;BME280;31519;45.408;10.962;2023-04-01T21:23:46;99635.16;;;19.70;46.10
45813;BME280;31519;45.408;10.962;2023-04-01T21:27:01;99639.78;;;19.76;47.13
45813;BME280;31519;45.408;10.962;2023-04-01T21:34:40;99639.78;;;20.01;48.22
45813;BME280;31519;45.408;10.962;2023-04-01T22:03:58;99644.03;;;19.91;51.23
45813;BME280;31519;45.408;10.962;2023-04-01T22:06:43;99644.44;;;19.83;51.61
45813;BME280;31519;45.408;10.962;2023-04-01T22:09:18;99652.13;;;19.84;51.75
45813;BME280;31519;45.408;10.962;2023-04-01T22:14:52;99649.03;;;19.58;52.45
45813;BME280;31519;45.408;10.962;2023-04-01T22:17:27;99648.66;;;19.66;52.77
45813;BME280;31519;45.408;10.962;2023-04-01T22:20:44;99651.75;;;19.75;52.50
45813;BME280;31519;45.408;10.962;2023-04-01T22:25:25;99650.59;;;19.83;52.42
45813;BME280;31519;45.408;10.962;2023-04-01T22:27:58;99649.81;;;19.90;52.49
45813;BME280;31519;45.408;10.962;2023-04-01T22:35:29;99650.22;;;19.74;53.18
45813;BME280;31519;45.408;10.962;2023-04-01T22:40:53;99642.47;;;19.76;53.16
45813;BME280;31519;45.408;10.962;2023-04-01T22:43:29;99644.41;;;19.93;52.50
45813;BME280;31519;45.408;10.962;2023-04-01T22:48:54;99647.91;;;19.87;52.81
45813;BME280;31519;45.408;10.962;2023-04-01T22:51:37;99644.81;;;19.74;53.37
45813;BME280;31519;45.408;10.962;2023-04-01T22:54:12;99647.50;;;19.81;52.93
45813;BME280;31519;45.408;10.962;2023-04-01T22:56:47;99651.00;;;19.75;52.87
45813;BME280;31519;45.408;10.962;2023-04-01T22:59:21;99647.13;;;19.79;52.51
45813;BME280;31519;45.408;10.962;2023-04-01T23:01:54;99653.31;;;19.73;52.85
45813;BME280;31519;45.408;10.962;2023-04-01T23:04:24;99663.34;;;19.69;52.37
45813;BME280;31519;45.408;10.962;2023-04-01T23:07:00;99658.50;;;18.26;59.28
45813;BME280;31519;45.408;10.962;2023-04-01T23:09:31;99664.13;;;18.07;61.56
45813;BME280;31519;45.408;10.962;2023-04-01T23:12:08;99658.53;;;17.79;64.01